Weather at River Cess Airport/Heliport

Public forecast

Using degrees Celsius for public forecast. Weather courtesy of forecast.io.

Closest aviation weather report (METAR) to River Cess Airport/Heliport

Closest report is Roberts International Airport, 65.2 nm (120.7 km) NW. Retrieved 2021/03/06 13:30 UTC (0 seconds ago):

GLRB 061330Z 26007KT 9999 TS BKN014 FEW024CB 29/26 Q1011 NOSIG RMK CB/SE-SW

Closest aviation forecast (TAF) to River Cess Airport/Heliport

Closest forecast is Roberts International Airport, 65.2 nm (120.7 km) NW. Retrieved 2021/03/06 12:03 UTC (1 hour ago):

TAF TAF GLRB 061100Z 0612/0712 22008KT 9999 BKN016 BECMG 0613/0615 20005KT 7000 TSRA BKN013 FEW023CB TEMPO 0616/0620 VRB02KT 9999 BKN012 BECMG 0622/0624 00000KT 9000 SCT012